sensor_id;sensor_type;location;lat;lon;timestamp;temperature;humidity
69679;DHT22;56915;52.046;4.854;2022-09-03T00:00:53;15.60;41.30
69679;DHT22;56915;52.046;4.854;2022-09-03T00:03:43;15.60;41.60
69679;DHT22;56915;52.046;4.854;2022-09-03T00:08:57;15.50;41.70
69679;DHT22;56915;52.046;4.854;2022-09-03T00:14:19;15.40;42.10
69679;DHT22;56915;52.046;4.854;2022-09-03T00:16:56;15.40;42.40
69679;DHT22;56915;52.046;4.854;2022-09-03T00:19:31;15.40;42.60
69679;DHT22;56915;52.046;4.854;2022-09-03T00:22:03;15.30;42.80
69679;DHT22;56915;52.046;4.854;2022-09-03T00:24:35;15.30;43.00
69679;DHT22;56915;52.046;4.854;2022-09-03T00:27:10;15.30;43.10
69679;DHT22;56915;52.046;4.854;2022-09-03T00:32:28;15.30;43.70
69679;DHT22;56915;52.046;4.854;2022-09-03T00:35:03;15.30;43.80
69679;DHT22;56915;52.046;4.854;2022-09-03T00:37:33;15.30;43.80
69679;DHT22;56915;52.046;4.854;2022-09-03T00:40:05;15.30;44.70
69679;DHT22;56915;52.046;4.854;2022-09-03T00:45:26;15.20;44.10
69679;DHT22;56915;52.046;4.854;2022-09-03T00:48:18;15.20;44.40
69679;DHT22;56915;52.046;4.854;2022-09-03T00:56:36;15.10;45.00
69679;DHT22;56915;52.046;4.854;2022-09-03T00:59:41;15.00;45.00
69679;DHT22;56915;52.046;4.854;2022-09-03T01:05:12;15.00;45.30
69679;DHT22;56915;52.046;4.854;2022-09-03T01:07:54;14.90;45.60
69679;DHT22;56915;52.046;4.854;2022-09-03T01:11:01;14.90;45.70
69679;DHT22;56915;52.046;4.854;2022-09-03T01:25:05;14.70;47.20
69679;DHT22;56915;52.046;4.854;2022-09-03T01:27:54;14.70;47.20
69679;DHT22;56915;52.046;4.854;2022-09-03T01:30:22;14.70;47.50
69679;DHT22;56915;52.046;4.854;2022-09-03T01:33:14;14.70;47.80
69679;DHT22;56915;52.046;4.854;2022-09-03T01:35:46;14.70;48.10
69679;DHT22;56915;52.046;4.854;2022-09-03T01:44:29;14.70;48.60
69679;DHT22;56915;52.046;4.854;2022-09-03T01:46:38;14.70;48.70
69679;DHT22;56915;52.046;4.854;2022-09-03T01:52:12;14.80;48.60
69679;DHT22;56915;52.046;4.854;2022-09-03T01:54:45;14.80;49.00
69679;DHT22;56915;52.046;4.854;2022-09-03T02:00:22;14.90;49.30
69679;DHT22;56915;52.046;4.854;2022-09-03T02:02:51;14.90;49.20
69679;DHT22;56915;52.046;4.854;2022-09-03T02:05:36;14.90;49.30
69679;DHT22;56915;52.046;4.854;2022-09-03T02:08:06;14.90;49.30
69679;DHT22;56915;52.046;4.854;2022-09-03T02:10:40;15.00;49.20
69679;DHT22;56915;52.046;4.854;2022-09-03T02:13:09;15.00;49.20
69679;DHT22;56915;52.046;4.854;2022-09-03T02:15:40;15.10;49.20
69679;DHT22;56915;52.046;4.854;2022-09-03T02:18:19;15.10;49.10
69679;DHT22;56915;52.046;4.854;2022-09-03T02:20:49;15.10;49.20
69679;DHT22;56915;52.046;4.854;2022-09-03T02:23:17;15.10;49.20
69679;DHT22;56915;52.046;4.854;2022-09-03T02:26:01;15.10;49.40
69679;DHT22;56915;52.046;4.854;2022-09-03T02:28:29;15.10;49.30
69679;DHT22;56915;52.046;4.854;2022-09-03T02:30:57;15.10;49.30
69679;DHT22;56915;52.046;4.854;2022-09-03T02:33:25;15.10;49.40
69679;DHT22;56915;52.046;4.854;2022-09-03T02:35:53;15.10;49.40
69679;DHT22;56915;52.046;4.854;2022-09-03T02:38:23;15.10;49.40
69679;DHT22;56915;52.046;4.854;2022-09-03T02:40:51;15.10;49.50
69679;DHT22;56915;52.046;4.854;2022-09-03T02:46:20;15.10;49.60
69679;DHT22;56915;52.046;4.854;2022-09-03T02:48:47;15.10;49.60
69679;DHT22;56915;52.046;4.854;2022-09-03T02:51:14;15.10;49.70
69679;DHT22;56915;52.046;4.854;2022-09-03T02:53:42;15.10;49.50
69679;DHT22;56915;52.046;4.854;2022-09-03T02:56:09;15.10;49.20
69679;DHT22;56915;52.046;4.854;2022-09-03T02:58:37;15.10;49.10
69679;DHT22;56915;52.046;4.854;2022-09-03T03:01:04;15.20;49.10
69679;DHT22;56915;52.046;4.854;2022-09-03T03:03:31;15.20;49.00
69679;DHT22;56915;52.046;4.854;2022-09-03T03:06:00;15.20;48.60
69679;DHT22;56915;52.046;4.854;2022-09-03T03:08:28;15.20;48.60
69679;DHT22;56915;52.046;4.854;2022-09-03T03:10:57;15.20;48.60
69679;DHT22;56915;52.046;4.854;2022-09-03T03:13:26;15.20;48.70
69679;DHT22;56915;52.046;4.854;2022-09-03T03:16:02;15.20;48.60
69679;DHT22;56915;52.046;4.854;2022-09-03T03:18:29;15.10;48.80
69679;DHT22;56915;52.046;4.854;2022-09-03T03:20:56;15.10;48.90
69679;DHT22;56915;52.046;4.854;2022-09-03T03:23:23;15.10;48.90
69679;DHT22;56915;52.046;4.854;2022-09-03T03:25:50;15.10;49.00
69679;DHT22;56915;52.046;4.854;2022-09-03T03:28:16;15.10;49.10
69679;DHT22;56915;52.046;4.854;2022-09-03T03:30:46;15.00;49.10
69679;DHT22;56915;52.046;4.854;2022-09-03T03:33:14;15.00;49.10
69679;DHT22;56915;52.046;4.854;2022-09-03T03:35:41;15.00;49.30
69679;DHT22;56915;52.046;4.854;2022-09-03T03:38:08;15.00;49.60
69679;DHT22;56915;52.046;4.854;2022-09-03T03:40:37;14.90;49.60
69679;DHT22;56915;52.046;4.854;2022-09-03T03:43:04;14.90;49.70
69679;DHT22;56915;52.046;4.854;2022-09-03T03:45:31;14.90;49.80
69679;DHT22;56915;52.046;4.854;2022-09-03T03:47:58;14.80;50.00
69679;DHT22;56915;52.046;4.854;2022-09-03T03:50:25;14.80;50.00
69679;DHT22;56915;52.046;4.854;2022-09-03T03:52:52;14.80;50.20
69679;DHT22;56915;52.046;4.854;2022-09-03T03:55:19;14.80;50.30
69679;DHT22;56915;52.046;4.854;2022-09-03T03:57:46;14.80;50.40
69679;DHT22;56915;52.046;4.854;2022-09-03T04:00:13;14.70;50.50
69679;DHT22;56915;52.046;4.854;2022-09-03T04:02:40;14.70;50.80
69679;DHT22;56915;52.046;4.854;2022-09-03T04:05:07;14.70;51.00
69679;DHT22;56915;52.046;4.854;2022-09-03T04:07:34;14.60;51.10
69679;DHT22;56915;52.046;4.854;2022-09-03T04:10:01;14.60;51.30
69679;DHT22;56915;52.046;4.854;2022-09-03T04:12:28;14.60;51.70
69679;DHT22;56915;52.046;4.854;2022-09-03T04:14:55;14.50;52.00
69679;DHT22;56915;52.046;4.854;2022-09-03T04:17:22;14.50;52.10
69679;DHT22;56915;52.046;4.854;2022-09-03T04:19:51;14.50;52.40
69679;DHT22;56915;52.046;4.854;2022-09-03T04:22:17;14.50;52.40
69679;DHT22;56915;52.046;4.854;2022-09-03T04:24:46;14.50;52.70
69679;DHT22;56915;52.046;4.854;2022-09-03T04:27:12;14.40;52.80
69679;DHT22;56915;52.046;4.854;2022-09-03T04:29:39;14.40;53.20
69679;DHT22;56915;52.046;4.854;2022-09-03T04:32:06;14.40;53.30
69679;DHT22;56915;52.046;4.854;2022-09-03T04:34:51;14.40;53.70
69679;DHT22;56915;52.046;4.854;2022-09-03T04:37:18;14.30;53.70
69679;DHT22;56915;52.046;4.854;2022-09-03T04:39:45;14.30;53.90
69679;DHT22;56915;52.046;4.854;2022-09-03T04:42:12;14.30;54.20
69679;DHT22;56915;52.046;4.854;2022-09-03T04:44:39;14.30;54.70
69679;DHT22;56915;52.046;4.854;2022-09-03T04:47:06;14.20;55.10
69679;DHT22;56915;52.046;4.854;2022-09-03T04:49:33;14.20;55.10
69679;DHT22;56915;52.046;4.854;2022-09-03T04:52:01;14.20;55.40
69679;DHT22;56915;52.046;4.854;2022-09-03T04:54:28;14.20;55.50
69679;DHT22;56915;52.046;4.854;2022-09-03T04:56:55;14.20;55.90
69679;DHT22;56915;52.046;4.854;2022-09-03T04:59:22;14.10;56.00
69679;DHT22;56915;52.046;4.854;2022-09-03T05:01:48;14.10;56.20
69679;DHT22;56915;52.046;4.854;2022-09-03T05:04:18;14.10;56.60
69679;DHT22;56915;52.046;4.854;2022-09-03T05:06:45;14.10;56.80
69679;DHT22;56915;52.046;4.854;2022-09-03T05:09:12;14.10;57.20
69679;DHT22;56915;52.046;4.854;2022-09-03T05:11:38;14.10;57.40
69679;DHT22;56915;52.046;4.854;2022-09-03T05:14:05;14.20;57.60
69679;DHT22;56915;52.046;4.854;2022-09-03T05:16:32;14.20;57.50
69679;DHT22;56915;52.046;4.854;2022-09-03T05:18:59;14.20;57.40
69679;DHT22;56915;52.046;4.854;2022-09-03T05:21:27;14.20;57.50
69679;DHT22;56915;52.046;4.854;2022-09-03T05:23:54;14.30;57.50
69679;DHT22;56915;52.046;4.854;2022-09-03T05:26:26;14.30;57.60
69679;DHT22;56915;52.046;4.854;2022-09-03T05:28:55;14.30;57.60
69679;DHT22;56915;52.046;4.854;2022-09-03T05:31:24;14.40;57.60
69679;DHT22;56915;52.046;4.854;2022-09-03T05:33:54;14.50;57.40
69679;DHT22;56915;52.046;4.854;2022-09-03T05:36:24;14.50;57.40
69679;DHT22;56915;52.046;4.854;2022-09-03T05:38:52;14.50;57.10
69679;DHT22;56915;52.046;4.854;2022-09-03T05:41:20;14.60;57.10
69679;DHT22;56915;52.046;4.854;2022-09-03T05:43:48;14.70;56.70
69679;DHT22;56915;52.046;4.854;2022-09-03T05:46:22;14.80;56.80
69679;DHT22;56915;52.046;4.854;2022-09-03T05:49:02;14.90;56.40
69679;DHT22;56915;52.046;4.854;2022-09-03T05:51:31;15.00;56.10
69679;DHT22;56915;52.046;4.854;2022-09-03T05:53:58;15.10;55.70
69679;DHT22;56915;52.046;4.854;2022-09-03T05:56:27;15.10;55.20
69679;DHT22;56915;52.046;4.854;2022-09-03T05:58:56;15.20;55.00
69679;DHT22;56915;52.046;4.854;2022-09-03T06:01:29;15.30;54.70
69679;DHT22;56915;52.046;4.854;2022-09-03T06:04:08;15.40;54.40
69679;DHT22;56915;52.046;4.854;2022-09-03T06:06:37;15.50;53.80
69679;DHT22;56915;52.046;4.854;2022-09-03T06:09:06;15.50;53.30
69679;DHT22;56915;52.046;4.854;2022-09-03T06:11:34;15.60;53.00
69679;DHT22;56915;52.046;4.854;2022-09-03T06:14:04;15.70;52.70
69679;DHT22;56915;52.046;4.854;2022-09-03T06:16:33;15.80;52.20
69679;DHT22;56915;52.046;4.854;2022-09-03T06:19:02;15.80;51.70
69679;DHT22;56915;52.046;4.854;2022-09-03T06:21:29;15.90;51.70
69679;DHT22;56915;52.046;4.854;2022-09-03T06:23:56;16.00;51.40
69679;DHT22;56915;52.046;4.854;2022-09-03T06:26:26;16.00;51.30
69679;DHT22;56915;52.046;4.854;2022-09-03T06:28:56;16.10;51.20
69679;DHT22;56915;52.046;4.854;2022-09-03T06:31:24;16.20;51.10
69679;DHT22;56915;52.046;4.854;2022-09-03T06:33:51;16.30;50.80
69679;DHT22;56915;52.046;4.854;2022-09-03T06:36:19;16.40;50.40
69679;DHT22;56915;52.046;4.854;2022-09-03T06:38:46;16.40;50.00
69679;DHT22;56915;52.046;4.854;2022-09-03T06:41:18;16.50;49.60
69679;DHT22;56915;52.046;4.854;2022-09-03T06:43:53;16.60;49.20
69679;DHT22;56915;52.046;4.854;2022-09-03T06:46:22;16.70;48.70
69679;DHT22;56915;52.046;4.854;2022-09-03T06:48:49;16.80;48.50
69679;DHT22;56915;52.046;4.854;2022-09-03T06:51:18;16.90;48.20
69679;DHT22;56915;52.046;4.854;2022-09-03T06:53:51;17.00;47.40
69679;DHT22;56915;52.046;4.854;2022-09-03T06:56:20;17.10;46.70
69679;DHT22;56915;52.046;4.854;2022-09-03T06:58:57;17.20;46.30
69679;DHT22;56915;52.046;4.854;2022-09-03T07:01:29;17.30;45.90
69679;DHT22;56915;52.046;4.854;2022-09-03T07:04:02;17.50;45.60
69679;DHT22;56915;52.046;4.854;2022-09-03T07:06:31;17.60;45.00
69679;DHT22;56915;52.046;4.854;2022-09-03T07:08:59;17.70;44.50
69679;DHT22;56915;52.046;4.854;2022-09-03T07:11:28;17.80;44.00
69679;DHT22;56915;52.046;4.854;2022-09-03T07:13:57;17.90;43.40
69679;DHT22;56915;52.046;4.854;2022-09-03T07:16:27;18.00;43.20
69679;DHT22;56915;52.046;4.854;2022-09-03T07:18:54;18.10;42.80
69679;DHT22;56915;52.046;4.854;2022-09-03T07:21:24;18.20;42.50
69679;DHT22;56915;52.046;4.854;2022-09-03T07:23:52;18.30;42.00
69679;DHT22;56915;52.046;4.854;2022-09-03T07:26:25;18.40;41.80
69679;DHT22;56915;52.046;4.854;2022-09-03T07:28:53;18.50;41.70
69679;DHT22;56915;52.046;4.854;2022-09-03T07:31:26;18.60;41.50
69679;DHT22;56915;52.046;4.854;2022-09-03T07:33:54;18.70;41.10
69679;DHT22;56915;52.046;4.854;2022-09-03T07:36:23;18.80;40.80
69679;DHT22;56915;52.046;4.854;2022-09-03T07:38:50;18.90;40.50
69679;DHT22;56915;52.046;4.854;2022-09-03T07:41:19;19.00;40.50
69679;DHT22;56915;52.046;4.854;2022-09-03T07:43:54;19.10;40.30
69679;DHT22;56915;52.046;4.854;2022-09-03T07:46:24;19.20;39.90
69679;DHT22;56915;52.046;4.854;2022-09-03T07:48:54;19.30;39.80
69679;DHT22;56915;52.046;4.854;2022-09-03T07:51:24;19.40;39.80
69679;DHT22;56915;52.046;4.854;2022-09-03T07:53:57;19.50;39.40
69679;DHT22;56915;52.046;4.854;2022-09-03T07:56:25;19.60;39.10
69679;DHT22;56915;52.046;4.854;2022-09-03T07:58:53;19.80;38.90
69679;DHT22;56915;52.046;4.854;2022-09-03T08:01:23;19.80;38.50
69679;DHT22;56915;52.046;4.854;2022-09-03T08:03:51;19.90;38.30
69679;DHT22;56915;52.046;4.854;2022-09-03T08:06:23;19.90;38.20
69679;DHT22;56915;52.046;4.854;2022-09-03T08:08:58;20.00;38.40
69679;DHT22;56915;52.046;4.854;2022-09-03T08:11:32;20.20;38.00
69679;DHT22;56915;52.046;4.854;2022-09-03T08:14:02;20.30;37.70
69679;DHT22;56915;52.046;4.854;2022-09-03T08:16:40;20.30;37.40
69679;DHT22;56915;52.046;4.854;2022-09-03T08:19:08;20.40;37.20
69679;DHT22;56915;52.046;4.854;2022-09-03T08:21:35;20.50;37.40
69679;DHT22;56915;52.046;4.854;2022-09-03T08:24:02;20.70;38.00
69679;DHT22;56915;52.046;4.854;2022-09-03T08:26:31;20.80;36.90
69679;DHT22;56915;52.046;4.854;2022-09-03T08:28:58;20.90;36.90
69679;DHT22;56915;52.046;4.854;2022-09-03T08:31:27;21.00;36.60
69679;DHT22;56915;52.046;4.854;2022-09-03T08:33:56;21.10;36.60
69679;DHT22;56915;52.046;4.854;2022-09-03T08:36:28;21.20;36.10
69679;DHT22;56915;52.046;4.854;2022-09-03T08:38:59;21.30;35.90
69679;DHT22;56915;52.046;4.854;2022-09-03T08:54:47;21.90;34.50
69679;DHT22;56915;52.046;4.854;2022-09-03T08:57:18;22.00;34.40
69679;DHT22;56915;52.046;4.854;2022-09-03T08:59:48;22.10;34.00
69679;DHT22;56915;52.046;4.854;2022-09-03T09:02:31;22.20;33.50
69679;DHT22;56915;52.046;4.854;2022-09-03T09:05:11;22.20;33.50
69679;DHT22;56915;52.046;4.854;2022-09-03T09:08:14;22.30;33.60
69679;DHT22;56915;52.046;4.854;2022-09-03T09:10:57;22.40;33.10
69679;DHT22;56915;52.046;4.854;2022-09-03T09:22:24;22.70;32.30
69679;DHT22;56915;52.046;4.854;2022-09-03T09:24:55;22.80;31.90
69679;DHT22;56915;52.046;4.854;2022-09-03T09:27:23;22.80;32.00
69679;DHT22;56915;52.046;4.854;2022-09-03T09:29:50;22.90;32.20
69679;DHT22;56915;52.046;4.854;2022-09-03T09:32:19;23.00;32.00
69679;DHT22;56915;52.046;4.854;2022-09-03T09:34:47;23.10;32.10
69679;DHT22;56915;52.046;4.854;2022-09-03T09:37:18;23.30;32.00
69679;DHT22;56915;52.046;4.854;2022-09-03T09:39:56;23.30;31.80
69679;DHT22;56915;52.046;4.854;2022-09-03T09:42:24;23.40;31.30
69679;DHT22;56915;52.046;4.854;2022-09-03T09:44:51;23.50;31.40
69679;DHT22;56915;52.046;4.854;2022-09-03T09:47:31;23.60;31.30
69679;DHT22;56915;52.046;4.854;2022-09-03T09:50:01;23.70;30.90
69679;DHT22;56915;52.046;4.854;2022-09-03T09:52:29;23.80;30.80
69679;DHT22;56915;52.046;4.854;2022-09-03T09:55:14;23.80;30.50
69679;DHT22;56915;52.046;4.854;2022-09-03T09:57:43;23.90;30.50
69679;DHT22;56915;52.046;4.854;2022-09-03T10:00:12;24.00;31.60
69679;DHT22;56915;52.046;4.854;2022-09-03T10:02:49;24.10;30.40
69679;DHT22;56915;52.046;4.854;2022-09-03T10:05:22;24.20;30.30
69679;DHT22;56915;52.046;4.854;2022-09-03T10:08:04;24.20;30.10
69679;DHT22;56915;52.046;4.854;2022-09-03T10:10:43;24.30;30.10
69679;DHT22;56915;52.046;4.854;2022-09-03T10:13:13;24.40;30.00
69679;DHT22;56915;52.046;4.854;2022-09-03T10:16:00;24.50;30.00
69679;DHT22;56915;52.046;4.854;2022-09-03T10:18:42;24.50;29.70
69679;DHT22;56915;52.046;4.854;2022-09-03T10:21:35;24.60;29.70
69679;DHT22;56915;52.046;4.854;2022-09-03T10:26:53;24.70;29.20
69679;DHT22;56915;52.046;4.854;2022-09-03T10:29:22;24.80;29.50
69679;DHT22;56915;52.046;4.854;2022-09-03T10:34:53;24.80;29.00
69679;DHT22;56915;52.046;4.854;2022-09-03T10:37:28;25.00;29.30
69679;DHT22;56915;52.046;4.854;2022-09-03T10:43:17;25.10;28.70
69679;DHT22;56915;52.046;4.854;2022-09-03T10:46:01;25.20;28.70
69679;DHT22;56915;52.046;4.854;2022-09-03T10:51:41;25.40;28.80
69679;DHT22;56915;52.046;4.854;2022-09-03T10:54:25;25.40;28.60
69679;DHT22;56915;52.046;4.854;2022-09-03T11:05:05;25.60;28.10
69679;DHT22;56915;52.046;4.854;2022-09-03T11:07:40;25.70;28.10
69679;DHT22;56915;52.046;4.854;2022-09-03T11:10:22;25.70;27.80
69679;DHT22;56915;52.046;4.854;2022-09-03T11:13:02;25.70;27.70
69679;DHT22;56915;52.046;4.854;2022-09-03T11:18:40;25.80;27.70
69679;DHT22;56915;52.046;4.854;2022-09-03T11:21:12;25.90;28.10
69679;DHT22;56915;52.046;4.854;2022-09-03T11:23:45;26.00;28.10
69679;DHT22;56915;52.046;4.854;2022-09-03T11:26:17;26.10;27.80
69679;DHT22;56915;52.046;4.854;2022-09-03T11:28:59;26.20;27.70
69679;DHT22;56915;52.046;4.854;2022-09-03T11:31:37;26.20;27.50
69679;DHT22;56915;52.046;4.854;2022-09-03T11:34:14;26.20;27.40
69679;DHT22;56915;52.046;4.854;2022-09-03T11:36:49;26.20;28.10
69679;DHT22;56915;52.046;4.854;2022-09-03T11:39:34;26.20;27.30
69679;DHT22;56915;52.046;4.854;2022-09-03T11:42:28;26.30;27.70
69679;DHT22;56915;52.046;4.854;2022-09-03T11:44:50;26.30;27.30
69679;DHT22;56915;52.046;4.854;2022-09-03T11:47:22;26.40;27.30
69679;DHT22;56915;52.046;4.854;2022-09-03T11:50:05;26.50;27.30
69679;DHT22;56915;52.046;4.854;2022-09-03T11:52:32;26.50;27.00
69679;DHT22;56915;52.046;4.854;2022-09-03T11:55:06;26.50;26.90
69679;DHT22;56915;52.046;4.854;2022-09-03T11:57:40;26.60;27.00
69679;DHT22;56915;52.046;4.854;2022-09-03T12:00:13;26.60;27.10
69679;DHT22;56915;52.046;4.854;2022-09-03T12:02:54;26.70;26.90
69679;DHT22;56915;52.046;4.854;2022-09-03T12:16:59;27.00;26.60
69679;DHT22;56915;52.046;4.854;2022-09-03T12:19:37;26.90;26.30
69679;DHT22;56915;52.046;4.854;2022-09-03T12:22:05;26.90;26.20
69679;DHT22;56915;52.046;4.854;2022-09-03T12:24:32;27.00;26.40
69679;DHT22;56915;52.046;4.854;2022-09-03T12:27:04;27.00;26.50
69679;DHT22;56915;52.046;4.854;2022-09-03T12:29:31;27.10;26.70
69679;DHT22;56915;52.046;4.854;2022-09-03T12:32:07;27.10;26.70
69679;DHT22;56915;52.046;4.854;2022-09-03T12:34:35;27.30;27.20
69679;DHT22;56915;52.046;4.854;2022-09-03T12:37:02;27.30;26.10
69679;DHT22;56915;52.046;4.854;2022-09-03T12:39:50;27.30;25.80
69679;DHT22;56915;52.046;4.854;2022-09-03T12:42:34;27.30;26.00
69679;DHT22;56915;52.046;4.854;2022-09-03T12:45:05;27.30;25.70
69679;DHT22;56915;52.046;4.854;2022-09-03T12:47:41;27.30;25.70
69679;DHT22;56915;52.046;4.854;2022-09-03T12:50:14;27.30;25.60
69679;DHT22;56915;52.046;4.854;2022-09-03T12:55:39;27.40;25.30
69679;DHT22;56915;52.046;4.854;2022-09-03T12:58:12;27.50;25.40
69679;DHT22;56915;52.046;4.854;2022-09-03T13:00:56;27.50;25.40
69679;DHT22;56915;52.046;4.854;2022-09-03T13:06:18;27.70;25.50
69679;DHT22;56915;52.046;4.854;2022-09-03T13:08:54;27.70;25.40
69679;DHT22;56915;52.046;4.854;2022-09-03T13:11:23;27.80;25.20
69679;DHT22;56915;52.046;4.854;2022-09-03T13:13:59;27.70;25.10
69679;DHT22;56915;52.046;4.854;2022-09-03T13:30:02;27.90;24.30
69679;DHT22;56915;52.046;4.854;2022-09-03T13:36:01;28.00;23.80
69679;DHT22;56915;52.046;4.854;2022-09-03T13:49:49;28.20;24.30
69679;DHT22;56915;52.046;4.854;2022-09-03T13:52:56;28.30;23.90
69679;DHT22;56915;52.046;4.854;2022-09-03T13:58:42;28.30;23.70
69679;DHT22;56915;52.046;4.854;2022-09-03T14:01:19;28.40;23.20
69679;DHT22;56915;52.046;4.854;2022-09-03T14:03:58;28.40;23.20
69679;DHT22;56915;52.046;4.854;2022-09-03T14:11:45;28.50;23.00
69679;DHT22;56915;52.046;4.854;2022-09-03T14:17:31;28.70;23.00
69679;DHT22;56915;52.046;4.854;2022-09-03T14:20:22;28.80;22.90
69679;DHT22;56915;52.046;4.854;2022-09-03T14:23:06;28.90;23.00
69679;DHT22;56915;52.046;4.854;2022-09-03T14:25:36;28.90;22.40
69679;DHT22;56915;52.046;4.854;2022-09-03T14:28:35;29.00;22.40
69679;DHT22;56915;52.046;4.854;2022-09-03T14:34:06;29.00;22.50
69679;DHT22;56915;52.046;4.854;2022-09-03T14:36:48;29.10;22.30
69679;DHT22;56915;52.046;4.854;2022-09-03T14:39:27;29.10;21.90
69679;DHT22;56915;52.046;4.854;2022-09-03T14:45:13;29.20;21.70
69679;DHT22;56915;52.046;4.854;2022-09-03T14:50:41;29.50;21.80
69679;DHT22;56915;52.046;4.854;2022-09-03T14:53:47;29.60;21.70
69679;DHT22;56915;52.046;4.854;2022-09-03T14:56:49;29.70;21.70
69679;DHT22;56915;52.046;4.854;2022-09-03T15:02:02;30.00;21.60
69679;DHT22;56915;52.046;4.854;2022-09-03T15:07:33;30.30;21.30
69679;DHT22;56915;52.046;4.854;2022-09-03T15:10:30;30.30;22.10
69679;DHT22;56915;52.046;4.854;2022-09-03T15:13:07;30.50;21.10
69679;DHT22;56915;52.046;4.854;2022-09-03T15:15:45;30.80;21.00
69679;DHT22;56915;52.046;4.854;2022-09-03T15:21:02;34.80;19.30
69679;DHT22;56915;52.046;4.854;2022-09-03T15:29:10;39.30;17.30
69679;DHT22;56915;52.046;4.854;2022-09-03T15:34:49;40.90;15.90
69679;DHT22;56915;52.046;4.854;2022-09-03T15:37:24;41.50;15.20
69679;DHT22;56915;52.046;4.854;2022-09-03T15:40:04;42.00;15.40
69679;DHT22;56915;52.046;4.854;2022-09-03T15:42:32;42.50;15.10
69679;DHT22;56915;52.046;4.854;2022-09-03T15:45:18;42.90;14.70
69679;DHT22;56915;52.046;4.854;2022-09-03T15:47:52;43.20;14.40
69679;DHT22;56915;52.046;4.854;2022-09-03T15:53:30;43.80;14.10
69679;DHT22;56915;52.046;4.854;2022-09-03T16:04:39;45.40;13.00
69679;DHT22;56915;52.046;4.854;2022-09-03T16:07:24;45.60;12.80
69679;DHT22;56915;52.046;4.854;2022-09-03T16:13:03;45.40;12.40
69679;DHT22;56915;52.046;4.854;2022-09-03T16:15:42;45.40;12.40
69679;DHT22;56915;52.046;4.854;2022-09-03T16:18:29;45.30;12.20
69679;DHT22;56915;52.046;4.854;2022-09-03T16:23:54;44.50;12.30
69679;DHT22;56915;52.046;4.854;2022-09-03T16:26:33;44.20;12.50
69679;DHT22;56915;52.046;4.854;2022-09-03T16:29:11;43.20;12.70
69679;DHT22;56915;52.046;4.854;2022-09-03T16:32:01;41.50;13.30
69679;DHT22;56915;52.046;4.854;2022-09-03T16:35:54;39.70;14.10
69679;DHT22;56915;52.046;4.854;2022-09-03T16:46:56;33.70;16.90
69679;DHT22;56915;52.046;4.854;2022-09-03T16:49:32;33.00;17.30
69679;DHT22;56915;52.046;4.854;2022-09-03T17:00:48;30.50;19.50
69679;DHT22;56915;52.046;4.854;2022-09-03T17:06:08;29.80;20.40
69679;DHT22;56915;52.046;4.854;2022-09-03T17:11:43;29.20;21.00
69679;DHT22;56915;52.046;4.854;2022-09-03T17:17:03;28.70;21.80
69679;DHT22;56915;52.046;4.854;2022-09-03T17:30:58;27.60;23.30
69679;DHT22;56915;52.046;4.854;2022-09-03T17:33:51;27.30;23.70
69679;DHT22;56915;52.046;4.854;2022-09-03T17:36:24;27.10;24.20
69679;DHT22;56915;52.046;4.854;2022-09-03T17:41:59;26.60;24.70
69679;DHT22;56915;52.046;4.854;2022-09-03T17:44:32;26.30;25.10
69679;DHT22;56915;52.046;4.854;2022-09-03T17:50:18;25.70;25.60
69679;DHT22;56915;52.046;4.854;2022-09-03T17:52:57;25.40;26.70
69679;DHT22;56915;52.046;4.854;2022-09-03T17:55:35;25.10;27.10
69679;DHT22;56915;52.046;4.854;2022-09-03T17:58:19;24.80;26.70
69679;DHT22;56915;52.046;4.854;2022-09-03T18:06:47;24.20;27.60
69679;DHT22;56915;52.046;4.854;2022-09-03T18:11:58;23.80;28.10
69679;DHT22;56915;52.046;4.854;2022-09-03T18:14:42;23.60;28.50
69679;DHT22;56915;52.046;4.854;2022-09-03T18:20:09;23.10;29.50
69679;DHT22;56915;52.046;4.854;2022-09-03T18:25:51;22.60;30.00
69679;DHT22;56915;52.046;4.854;2022-09-03T18:29:00;22.40;30.50
69679;DHT22;56915;52.046;4.854;2022-09-03T18:31:46;22.10;31.20
69679;DHT22;56915;52.046;4.854;2022-09-03T18:34:34;21.90;31.20
69679;DHT22;56915;52.046;4.854;2022-09-03T18:37:22;21.80;31.60
69679;DHT22;56915;52.046;4.854;2022-09-03T18:40:13;21.60;32.00
69679;DHT22;56915;52.046;4.854;2022-09-03T18:43:28;21.50;32.40
69679;DHT22;56915;52.046;4.854;2022-09-03T18:46:31;21.30;32.90
69679;DHT22;56915;52.046;4.854;2022-09-03T19:01:33;20.70;35.20
69679;DHT22;56915;52.046;4.854;2022-09-03T19:10:41;20.20;36.90
69679;DHT22;56915;52.046;4.854;2022-09-03T19:13:33;20.20;36.90
69679;DHT22;56915;52.046;4.854;2022-09-03T19:16:56;20.10;37.30
69679;DHT22;56915;52.046;4.854;2022-09-03T19:20:08;20.00;37.60
69679;DHT22;56915;52.046;4.854;2022-09-03T19:22:55;20.00;37.80
69679;DHT22;56915;52.046;4.854;2022-09-03T19:25:40;20.00;37.70
69679;DHT22;56915;52.046;4.854;2022-09-03T19:28:30;20.00;37.80
69679;DHT22;56915;52.046;4.854;2022-09-03T19:31:36;20.00;38.00
69679;DHT22;56915;52.046;4.854;2022-09-03T19:37:29;20.10;37.80
69679;DHT22;56915;52.046;4.854;2022-09-03T19:40:44;20.10;37.90
69679;DHT22;56915;52.046;4.854;2022-09-03T19:46:53;20.00;38.60
69679;DHT22;56915;52.046;4.854;2022-09-03T19:50:10;20.00;38.70
69679;DHT22;56915;52.046;4.854;2022-09-03T19:53:07;19.90;38.90
69679;DHT22;56915;52.046;4.854;2022-09-03T19:55:57;19.90;38.80
69679;DHT22;56915;52.046;4.854;2022-09-03T19:58:46;19.80;38.90
69679;DHT22;56915;52.046;4.854;2022-09-03T20:01:35;19.80;39.40
69679;DHT22;56915;52.046;4.854;2022-09-03T20:04:33;19.70;39.90
69679;DHT22;56915;52.046;4.854;2022-09-03T20:07:20;19.60;40.40
69679;DHT22;56915;52.046;4.854;2022-09-03T20:10:10;19.50;40.60
69679;DHT22;56915;52.046;4.854;2022-09-03T20:13:01;19.40;41.10
69679;DHT22;56915;52.046;4.854;2022-09-03T20:23:47;19.20;42.50
69679;DHT22;56915;52.046;4.854;2022-09-03T20:27:03;19.20;42.70
69679;DHT22;56915;52.046;4.854;2022-09-03T20:29:43;19.20;42.80
69679;DHT22;56915;52.046;4.854;2022-09-03T20:38:15;19.00;42.60
69679;DHT22;56915;52.046;4.854;2022-09-03T20:40:49;19.00;42.40
69679;DHT22;56915;52.046;4.854;2022-09-03T20:46:17;18.90;42.60
69679;DHT22;56915;52.046;4.854;2022-09-03T20:48:51;18.80;42.90
69679;DHT22;56915;52.046;4.854;2022-09-03T20:51:24;18.70;43.20
69679;DHT22;56915;52.046;4.854;2022-09-03T21:11:20;18.20;45.40
69679;DHT22;56915;52.046;4.854;2022-09-03T21:13:57;18.10;45.90
69679;DHT22;56915;52.046;4.854;2022-09-03T21:17:01;18.10;46.40
69679;DHT22;56915;52.046;4.854;2022-09-03T21:25:59;17.80;48.20
69679;DHT22;56915;52.046;4.854;2022-09-03T21:28:39;17.70;48.50
69679;DHT22;56915;52.046;4.854;2022-09-03T21:33:47;17.60;49.80
69679;DHT22;56915;52.046;4.854;2022-09-03T21:36:24;17.50;50.30
69679;DHT22;56915;52.046;4.854;2022-09-03T21:39:36;17.50;50.60